createdAt,value
2019-06-26T00:00:12.260Z,2.67
2019-06-26T00:02:41.153Z,2.80
2019-06-26T00:05:10.328Z,2.80
2019-06-26T00:07:39.220Z,2.62
2019-06-26T00:10:08.405Z,2.33
2019-06-26T00:12:37.259Z,2.60
2019-06-26T00:15:07.990Z,2.02
2019-06-26T00:17:37.187Z,2.70
2019-06-26T00:20:06.604Z,2.40
2019-06-26T00:22:35.713Z,2.42
2019-06-26T00:25:06.552Z,2.75
2019-06-26T00:27:35.481Z,2.70
2019-06-26T00:30:07.294Z,2.40
2019-06-26T00:32:36.137Z,2.12
2019-06-26T00:35:05.836Z,2.22
2019-06-26T00:37:35.071Z,3.25
2019-06-26T00:40:05.879Z,1.98
2019-06-26T00:42:35.122Z,1.80
2019-06-26T00:45:05.076Z,2.08
2019-06-26T00:47:33.929Z,1.80
2019-06-26T00:50:02.836Z,2.55
2019-06-26T00:52:32.025Z,2.33
2019-06-26T00:55:00.853Z,2.45
2019-06-26T00:57:30.052Z,2.12
2019-06-26T01:00:00.465Z,2.30
2019-06-26T01:02:29.375Z,2.37
2019-06-26T01:05:00.533Z,1.87
2019-06-26T01:07:29.411Z,1.87
2019-06-26T01:09:58.625Z,1.98
2019-06-26T01:12:27.546Z,1.82
2019-06-26T01:14:56.434Z,2.05
2019-06-26T01:17:25.568Z,2.87
2019-06-26T01:19:54.416Z,1.80
2019-06-26T01:22:23.381Z,2.60
2019-06-26T01:24:52.268Z,2.10
2019-06-26T01:27:21.422Z,2.08
2019-06-26T01:29:50.351Z,1.80
2019-06-26T01:32:19.351Z,2.62
2019-06-26T01:34:48.461Z,2.02
2019-06-26T01:37:17.352Z,2.12
2019-06-26T01:39:46.203Z,2.00
2019-06-26T01:42:15.377Z,2.22
2019-06-26T01:44:44.299Z,1.87
2019-06-26T01:47:13.120Z,1.37
2019-06-26T01:49:41.985Z,2.20
2019-06-26T01:52:11.517Z,1.98
2019-06-26T01:54:40.354Z,2.20
2019-06-26T01:57:09.218Z,2.20
2019-06-26T01:59:38.161Z,2.08
2019-06-26T02:02:07.073Z,1.82
2019-06-26T02:04:35.951Z,2.52
2019-06-26T02:07:04.829Z,1.80
2019-06-26T02:09:33.660Z,1.82
2019-06-26T02:12:02.514Z,2.25
2019-06-26T02:14:31.951Z,2.22
2019-06-26T02:17:00.890Z,2.00
2019-06-26T02:19:29.756Z,2.58
2019-06-26T02:21:58.657Z,1.80
2019-06-26T02:24:27.498Z,2.05
2019-06-26T02:26:56.344Z,1.70
2019-06-26T02:29:25.223Z,1.85
2019-06-26T02:31:54.074Z,1.95
2019-06-26T02:34:22.929Z,2.22
2019-06-26T02:36:51.819Z,2.40
2019-06-26T02:39:20.669Z,2.10
2019-06-26T02:41:49.559Z,2.02
2019-06-26T02:44:18.446Z,1.90
2019-06-26T02:46:47.384Z,2.12
2019-06-26T02:49:16.196Z,1.87
2019-06-26T02:51:45.367Z,1.90
2019-06-26T02:54:14.269Z,2.33
2019-06-26T02:56:43.409Z,1.85
2019-06-26T02:59:12.262Z,2.12
2019-06-26T03:01:41.175Z,2.37
2019-06-26T03:04:10.017Z,1.65
2019-06-26T03:06:38.875Z,1.90
2019-06-26T03:09:07.840Z,2.12
2019-06-26T03:11:36.712Z,1.98
2019-06-26T03:14:05.557Z,2.02
2019-06-26T03:16:34.451Z,2.20
2019-06-26T03:19:03.311Z,2.15
2019-06-26T03:21:32.179Z,1.80
2019-06-26T03:24:01.076Z,2.12
2019-06-26T03:26:29.907Z,1.98
2019-06-26T03:28:58.914Z,2.08
2019-06-26T03:31:27.803Z,2.00
2019-06-26T03:33:56.913Z,1.70
2019-06-26T03:36:25.887Z,2.40
2019-06-26T03:38:54.883Z,1.67
2019-06-26T03:41:23.799Z,1.75
2019-06-26T03:43:52.752Z,2.70
2019-06-26T03:46:21.648Z,1.62
2019-06-26T03:48:50.492Z,2.70
2019-06-26T03:51:19.361Z,1.75
2019-06-26T03:53:48.261Z,2.40
2019-06-26T03:56:17.101Z,1.92
2019-06-26T03:58:46.295Z,1.90
2019-06-26T04:01:15.159Z,1.70
2019-06-26T04:03:44.014Z,3.95
2019-06-26T04:06:13.324Z,2.10
2019-06-26T04:08:42.175Z,2.17
2019-06-26T04:11:11.000Z,2.60
2019-06-26T04:13:40.750Z,1.87
2019-06-26T04:16:09.606Z,2.42
2019-06-26T04:18:38.448Z,2.40
2019-06-26T04:21:07.342Z,2.47
2019-06-26T04:23:36.207Z,2.10
2019-06-26T04:26:05.359Z,2.15
2019-06-26T04:28:34.303Z,2.00
2019-06-26T04:31:03.340Z,2.20
2019-06-26T04:33:32.498Z,2.27
2019-06-26T04:36:01.359Z,1.70
2019-06-26T04:38:30.237Z,1.85
2019-06-26T04:40:59.472Z,1.95
2019-06-26T04:43:28.316Z,1.82
2019-06-26T04:45:58.517Z,1.98
2019-06-26T04:48:27.660Z,2.27
2019-06-26T04:50:56.503Z,1.60
2019-06-26T04:53:25.409Z,2.42
2019-06-26T04:55:54.349Z,2.33
2019-06-26T04:58:23.216Z,1.85
2019-06-26T05:00:52.551Z,1.90
2019-06-26T05:03:21.539Z,2.02
2019-06-26T05:05:50.434Z,2.27
2019-06-26T05:08:19.614Z,1.77
2019-06-26T05:10:48.500Z,2.45
2019-06-26T05:13:17.391Z,1.80
2019-06-26T05:15:46.237Z,2.17
2019-06-26T05:18:15.088Z,1.95
2019-06-26T05:20:43.972Z,1.87
2019-06-26T05:23:12.807Z,2.60
2019-06-26T05:25:42.143Z,1.87
2019-06-26T05:28:10.979Z,1.75
2019-06-26T05:30:39.940Z,2.22
2019-06-26T05:33:09.266Z,2.00
2019-06-26T05:35:38.095Z,1.95
2019-06-26T05:38:07.307Z,2.70
2019-06-26T05:40:36.135Z,2.35
2019-06-26T05:43:04.983Z,2.33
2019-06-26T05:45:33.858Z,2.33
2019-06-26T05:48:03.007Z,2.20
2019-06-26T05:50:32.186Z,2.27
2019-06-26T05:53:01.053Z,2.25
2019-06-26T05:55:29.927Z,2.30
2019-06-26T05:57:58.825Z,1.87
2019-06-26T06:00:27.966Z,2.00
2019-06-26T06:02:57.954Z,2.27
2019-06-26T06:05:27.073Z,1.90
2019-06-26T06:07:55.962Z,1.80
2019-06-26T06:10:24.938Z,1.80
2019-06-26T06:12:53.822Z,1.98
2019-06-26T06:15:23.007Z,2.08
2019-06-26T06:17:51.887Z,2.10
2019-06-26T06:20:29.574Z,2.35
2019-06-26T06:22:58.686Z,2.52
2019-06-26T06:25:27.551Z,2.02
2019-06-26T06:27:56.506Z,1.67
2019-06-26T06:30:25.501Z,1.60
2019-06-26T06:32:54.314Z,1.70
2019-06-26T06:35:23.467Z,1.87
2019-06-26T06:37:52.473Z,1.75
2019-06-26T06:40:22.241Z,1.92
2019-06-26T06:42:51.224Z,1.90
2019-06-26T06:45:20.340Z,1.80
2019-06-26T06:47:49.324Z,1.80
2019-06-26T06:50:18.606Z,1.60
2019-06-26T06:52:47.787Z,1.82
2019-06-26T06:55:16.735Z,1.40
2019-06-26T06:57:45.658Z,1.87
2019-06-26T07:00:15.139Z,1.67
2019-06-26T07:02:44.138Z,1.85
2019-06-26T07:05:13.719Z,1.72
2019-06-26T07:07:42.595Z,1.65
2019-06-26T07:10:12.331Z,1.55
2019-06-26T07:12:41.322Z,1.40
2019-06-26T07:15:11.076Z,1.90
2019-06-26T07:17:40.002Z,1.50
2019-06-26T07:20:08.839Z,1.35
2019-06-26T07:22:37.687Z,1.32
2019-06-26T07:25:08.085Z,1.85
2019-06-26T07:27:36.941Z,1.85
2019-06-26T07:30:08.982Z,1.50
2019-06-26T07:32:38.090Z,1.87
2019-06-26T07:35:07.761Z,1.90
2019-06-26T07:37:36.624Z,2.02
2019-06-26T07:40:06.997Z,1.90
2019-06-26T07:42:36.171Z,1.77
2019-06-26T07:45:06.334Z,2.00
2019-06-26T07:47:43.236Z,2.15
2019-06-26T07:50:06.822Z,1.98
2019-06-26T07:52:35.692Z,1.75
2019-06-26T07:55:07.108Z,1.67
2019-06-26T07:57:35.981Z,1.82
2019-06-26T08:00:06.524Z,2.25
2019-06-26T08:02:35.426Z,1.72
2019-06-26T08:05:08.748Z,1.95
2019-06-26T08:07:37.592Z,1.72
2019-06-26T08:10:08.065Z,1.40
2019-06-26T08:12:37.033Z,1.85
2019-06-26T08:15:07.447Z,1.77
2019-06-26T08:17:36.689Z,2.22
2019-06-26T08:20:07.265Z,2.02
2019-06-26T08:22:37.619Z,1.82
2019-06-26T08:25:08.058Z,1.72
2019-06-26T08:27:37.010Z,1.87
2019-06-26T08:30:07.437Z,2.02
2019-06-26T08:32:36.456Z,1.62
2019-06-26T08:35:06.405Z,2.40
2019-06-26T08:37:35.309Z,1.82
2019-06-26T08:40:07.927Z,1.80
2019-06-26T08:42:37.456Z,1.40
2019-06-26T08:45:08.465Z,2.12
2019-06-26T08:47:37.660Z,1.90
2019-06-26T08:50:08.432Z,2.02
2019-06-26T08:52:37.641Z,2.50
2019-06-26T08:55:10.064Z,1.80
2019-06-26T08:57:38.920Z,2.12
2019-06-26T09:00:10.126Z,2.72
2019-06-26T09:02:38.974Z,2.00
2019-06-26T09:05:08.142Z,2.25
2019-06-26T09:07:37.073Z,1.70
2019-06-26T09:10:07.005Z,2.65
2019-06-26T09:12:36.191Z,2.52
2019-06-26T09:15:07.045Z,2.58
2019-06-26T09:17:36.951Z,2.15
2019-06-26T09:20:06.385Z,2.42
2019-06-26T09:22:35.271Z,1.80
2019-06-26T09:25:20.918Z,2.12
2019-06-26T09:27:38.870Z,2.05
2019-06-26T09:30:08.308Z,2.12
2019-06-26T09:32:37.165Z,2.22
2019-06-26T09:35:07.206Z,1.77
2019-06-26T09:37:36.059Z,2.15
2019-06-26T09:40:06.634Z,1.85
2019-06-26T09:42:35.503Z,1.70
2019-06-26T09:45:08.186Z,1.67
2019-06-26T09:47:37.431Z,2.15
2019-06-26T09:50:07.979Z,1.90
2019-06-26T09:52:36.817Z,2.33
2019-06-26T09:55:07.127Z,2.20
2019-06-26T09:57:35.973Z,2.02
2019-06-26T10:00:08.079Z,2.22
2019-06-26T10:02:37.326Z,2.40
2019-06-26T10:05:07.451Z,1.90
2019-06-26T10:07:36.773Z,2.37
2019-06-26T10:10:06.871Z,2.77
2019-06-26T10:12:35.715Z,1.82
2019-06-26T10:15:05.508Z,2.37
2019-06-26T10:17:34.382Z,1.92
2019-06-26T10:20:04.018Z,1.87
2019-06-26T10:22:32.934Z,1.75
2019-06-26T10:25:01.872Z,2.08
2019-06-26T10:27:30.760Z,1.80
2019-06-26T10:29:59.656Z,1.60
2019-06-26T10:32:28.510Z,2.00
2019-06-26T10:34:57.676Z,2.10
2019-06-26T10:37:26.590Z,1.80
2019-06-26T10:39:55.460Z,2.00
2019-06-26T10:42:24.680Z,2.10
2019-06-26T10:44:53.512Z,1.72
2019-06-26T10:47:22.431Z,1.85
2019-06-26T10:49:51.311Z,1.95
2019-06-26T10:52:20.140Z,1.70
2019-06-26T10:54:49.056Z,2.02
2019-06-26T10:57:17.904Z,1.57
2019-06-26T10:59:46.808Z,1.45
2019-06-26T11:02:16.929Z,1.77
2019-06-26T11:04:45.987Z,1.77
2019-06-26T11:07:14.880Z,1.50
2019-06-26T11:09:43.737Z,1.52
2019-06-26T11:12:12.594Z,1.45
2019-06-26T11:14:41.491Z,1.30
2019-06-26T11:17:10.343Z,1.60
2019-06-26T11:19:43.714Z,1.52
2019-06-26T11:22:09.804Z,1.40
2019-06-26T11:24:38.627Z,1.90
2019-06-26T11:27:07.489Z,1.62
2019-06-26T11:29:36.395Z,1.35
2019-06-26T11:32:09.144Z,1.55
2019-06-26T11:34:35.891Z,1.75
2019-06-26T11:37:04.888Z,1.47
2019-06-26T11:39:34.089Z,1.40
2019-06-26T11:42:02.930Z,1.62
2019-06-26T11:44:32.123Z,1.47
2019-06-26T11:47:01.055Z,1.52
2019-06-26T11:49:29.911Z,1.20
2019-06-26T11:51:58.847Z,1.57
2019-06-26T11:54:27.790Z,1.50
2019-06-26T11:56:56.963Z,1.40
2019-06-26T11:59:26.111Z,1.70
2019-06-26T12:01:55.348Z,1.40
2019-06-26T12:04:24.204Z,1.52
2019-06-26T12:06:53.065Z,1.60
2019-06-26T12:09:21.935Z,1.52
2019-06-26T12:11:50.778Z,1.55
2019-06-26T12:14:20.028Z,1.70
2019-06-26T12:16:48.881Z,1.40
2019-06-26T12:19:22.354Z,1.35
2019-06-26T12:21:48.586Z,1.60
2019-06-26T12:24:17.450Z,1.00
2019-06-26T12:26:46.881Z,1.57
2019-06-26T12:29:15.777Z,1.55
2019-06-26T12:31:44.617Z,1.57
2019-06-26T12:34:13.650Z,1.60
2019-06-26T12:36:42.604Z,1.40
2019-06-26T12:39:11.830Z,1.82
2019-06-26T12:41:40.674Z,1.90
2019-06-26T12:44:09.526Z,1.60
2019-06-26T12:46:38.411Z,1.77
2019-06-26T12:49:07.329Z,1.72
2019-06-26T12:51:36.248Z,1.50
2019-06-26T12:54:05.104Z,1.82
2019-06-26T12:56:34.059Z,1.60
2019-06-26T12:59:03.481Z,1.52
2019-06-26T13:01:32.465Z,1.50
2019-06-26T13:04:01.670Z,1.60
2019-06-26T13:06:30.645Z,1.60
2019-06-26T13:08:59.505Z,1.62
2019-06-26T13:11:28.520Z,1.65
2019-06-26T13:14:02.535Z,1.70
2019-06-26T13:16:28.279Z,1.40
2019-06-26T13:18:57.172Z,2.10
2019-06-26T13:21:26.005Z,1.65
2019-06-26T13:23:55.173Z,2.33
2019-06-26T13:26:24.108Z,2.08
2019-06-26T13:28:53.026Z,1.90
2019-06-26T13:31:22.171Z,1.37
2019-06-26T13:33:51.053Z,1.50
2019-06-26T13:36:20.102Z,1.30
2019-06-26T13:38:48.972Z,1.40
2019-06-26T13:41:17.817Z,1.50
2019-06-26T13:43:46.711Z,1.47
2019-06-26T13:46:15.584Z,1.40
2019-06-26T13:48:44.455Z,1.50
2019-06-26T13:51:13.338Z,1.60
2019-06-26T13:53:42.229Z,1.47
2019-06-26T13:56:11.695Z,1.57
2019-06-26T13:58:40.667Z,1.50
2019-06-26T14:01:09.620Z,1.40
2019-06-26T14:03:39.124Z,1.52
2019-06-26T14:06:08.463Z,1.85
2019-06-26T14:08:37.353Z,1.50
2019-06-26T14:11:07.559Z,1.55
2019-06-26T14:13:36.603Z,1.75
2019-06-26T14:16:05.512Z,1.50
2019-06-26T14:18:34.347Z,1.65
2019-06-26T14:21:03.241Z,1.70
2019-06-26T14:23:32.117Z,1.60
2019-06-26T14:26:00.985Z,1.45
2019-06-26T14:28:30.163Z,1.50
2019-06-26T14:30:59.083Z,1.42
2019-06-26T14:33:27.917Z,1.47
2019-06-26T14:35:57.133Z,1.60
2019-06-26T14:38:26.283Z,1.75
2019-06-26T14:40:55.501Z,1.70
2019-06-26T14:43:24.363Z,1.72
2019-06-26T14:45:53.206Z,1.57
2019-06-26T14:48:22.120Z,1.57
2019-06-26T14:50:50.960Z,1.60
2019-06-26T14:53:19.998Z,1.80
2019-06-26T14:55:48.837Z,1.40
2019-06-26T14:58:17.730Z,1.52
2019-06-26T15:00:46.597Z,1.47
2019-06-26T15:03:15.812Z,2.22
2019-06-26T15:05:45.045Z,1.90
2019-06-26T15:08:15.266Z,1.77
2019-06-26T15:10:44.273Z,1.70
2019-06-26T15:13:13.173Z,1.60
2019-06-26T15:15:42.055Z,1.70
2019-06-26T15:18:11.691Z,1.70
2019-06-26T15:20:40.612Z,1.65
2019-06-26T15:23:09.450Z,1.62
2019-06-26T15:25:38.331Z,1.65
2019-06-26T15:28:10.500Z,1.87
2019-06-26T15:30:38.725Z,1.60
2019-06-26T15:33:07.652Z,1.55
2019-06-26T15:35:36.508Z,1.52
2019-06-26T15:38:05.442Z,1.65
2019-06-26T15:40:34.431Z,1.42
2019-06-26T15:43:03.342Z,1.50
2019-06-26T15:45:32.249Z,1.82
2019-06-26T15:48:01.099Z,1.57
2019-06-26T15:50:30.303Z,2.02
2019-06-26T15:52:59.250Z,2.00
2019-06-26T15:55:28.226Z,1.95
2019-06-26T15:57:57.942Z,2.02
2019-06-26T16:00:26.798Z,1.82
2019-06-26T16:02:55.683Z,2.10
2019-06-26T16:05:24.608Z,1.72
2019-06-26T16:07:53.484Z,2.10
2019-06-26T16:10:22.678Z,1.77
2019-06-26T16:12:51.568Z,2.10
2019-06-26T16:15:20.720Z,1.90
2019-06-26T16:17:53.654Z,1.50
2019-06-26T16:20:22.508Z,1.70
2019-06-26T16:22:51.325Z,2.40
2019-06-26T16:25:20.270Z,2.15
2019-06-26T16:28:04.284Z,2.00
2019-06-26T16:30:19.998Z,1.90
2019-06-26T16:32:49.200Z,1.82
2019-06-26T16:35:18.392Z,2.08
2019-06-26T16:37:47.525Z,2.00
2019-06-26T16:40:16.429Z,2.20
2019-06-26T16:42:45.341Z,2.20
2019-06-26T16:45:14.225Z,2.10
2019-06-26T16:47:43.068Z,2.10
2019-06-26T16:50:12.041Z,1.95
2019-06-26T16:52:48.981Z,1.65
2019-06-26T16:55:11.770Z,2.12
2019-06-26T16:57:40.594Z,1.72
2019-06-26T17:00:11.616Z,1.77
2019-06-26T17:02:40.477Z,2.12
2019-06-26T17:05:10.900Z,1.80
2019-06-26T17:07:40.075Z,2.10
2019-06-26T17:10:10.635Z,2.40
2019-06-26T17:12:39.842Z,2.17
2019-06-26T17:15:09.078Z,1.80
2019-06-26T17:17:38.249Z,1.90
2019-06-26T17:20:07.381Z,1.70
2019-06-26T17:22:36.665Z,1.98
2019-06-26T17:25:07.638Z,1.80
2019-06-26T17:27:36.625Z,1.52
2019-06-26T17:30:07.490Z,1.50
2019-06-26T17:32:36.376Z,1.92
2019-06-26T17:35:09.067Z,1.30
2019-06-26T17:37:37.963Z,1.30
2019-06-26T17:40:08.124Z,1.40
2019-06-26T17:42:36.981Z,1.65
2019-06-26T17:45:07.087Z,1.90
2019-06-26T17:47:35.926Z,1.40
2019-06-26T17:50:05.889Z,1.50
2019-06-26T17:52:38.275Z,1.42
2019-06-26T17:55:07.477Z,1.65
2019-06-26T17:57:36.487Z,1.37
2019-06-26T18:00:07.323Z,1.60
2019-06-26T18:02:36.130Z,1.65
2019-06-26T18:05:06.251Z,1.42
2019-06-26T18:07:35.218Z,1.40
2019-06-26T18:10:05.717Z,1.42
2019-06-26T18:12:34.578Z,1.22
2019-06-26T18:15:03.577Z,1.35
2019-06-26T18:17:32.578Z,1.20
2019-06-26T18:20:01.467Z,1.00
2019-06-26T18:22:30.359Z,1.10
2019-06-26T18:24:59.232Z,1.10
2019-06-26T18:27:28.115Z,1.12
2019-06-26T18:29:57.009Z,1.30
2019-06-26T18:32:25.881Z,1.37
2019-06-26T18:34:55.093Z,1.60
2019-06-26T18:37:24.004Z,1.22
2019-06-26T18:39:53.537Z,1.50
2019-06-26T18:42:22.403Z,1.60
2019-06-26T18:44:51.260Z,1.00
2019-06-26T18:47:20.121Z,1.20
2019-06-26T18:49:49.032Z,1.30
2019-06-26T18:52:18.217Z,1.32
2019-06-26T18:54:47.086Z,1.30
2019-06-26T18:57:16.077Z,1.00
2019-06-26T18:59:44.915Z,0.75
2019-06-26T19:02:13.778Z,1.02
2019-06-26T19:04:42.664Z,1.07
2019-06-26T19:07:11.881Z,1.10
2019-06-26T19:09:40.749Z,1.15
2019-06-26T19:12:09.594Z,1.00
2019-06-26T19:14:38.490Z,1.10
2019-06-26T19:17:07.353Z,1.30
2019-06-26T19:19:36.507Z,0.90
2019-06-26T19:22:05.401Z,1.05
2019-06-26T19:24:34.241Z,1.15
2019-06-26T19:27:07.268Z,1.05
2019-06-26T19:29:33.712Z,1.00
2019-06-26T19:32:02.519Z,0.90
2019-06-26T19:34:31.425Z,0.95
2019-06-26T19:37:00.326Z,0.98
2019-06-26T19:39:29.243Z,1.00
2019-06-26T19:41:58.080Z,1.32
2019-06-26T19:44:26.977Z,1.10
2019-06-26T19:46:55.815Z,0.90
2019-06-26T19:49:24.731Z,1.35
2019-06-26T19:51:53.578Z,1.27
2019-06-26T19:54:27.000Z,1.22
2019-06-26T19:56:52.977Z,1.30
2019-06-26T19:59:21.846Z,1.05
2019-06-26T20:01:51.561Z,1.77
2019-06-26T20:04:20.586Z,1.62
2019-06-26T20:06:50.062Z,2.00
2019-06-26T20:09:18.971Z,1.80
2019-06-26T20:11:48.166Z,2.30
2019-06-26T20:14:17.011Z,1.92
2019-06-26T20:16:45.980Z,2.05
2019-06-26T20:19:14.890Z,1.52
2019-06-26T20:21:43.750Z,2.00
2019-06-26T20:24:12.582Z,2.20
2019-06-26T20:26:41.480Z,2.05
2019-06-26T20:29:10.335Z,2.20
2019-06-26T20:31:39.530Z,1.85
2019-06-26T20:34:08.509Z,2.00
2019-06-26T20:36:37.806Z,1.92
2019-06-26T20:39:07.159Z,2.02
2019-06-26T20:41:36.044Z,1.80
2019-06-26T20:44:04.924Z,2.20
2019-06-26T20:46:34.142Z,2.00
2019-06-26T20:49:03.166Z,1.77
2019-06-26T20:51:32.031Z,1.80
2019-06-26T20:54:00.914Z,1.92
2019-06-26T20:56:29.783Z,2.15
2019-06-26T20:58:58.663Z,2.08
2019-06-26T21:01:27.563Z,2.55
2019-06-26T21:03:56.434Z,2.67
2019-06-26T21:06:25.354Z,3.15
2019-06-26T21:08:54.313Z,2.95
2019-06-26T21:11:25.238Z,3.00
2019-06-26T21:13:54.154Z,2.77
2019-06-26T21:16:23.240Z,2.60
2019-06-26T21:18:52.778Z,3.05
2019-06-26T21:21:22.036Z,3.05
2019-06-26T21:23:50.929Z,2.85
2019-06-26T21:26:19.861Z,2.90
2019-06-26T21:28:49.006Z,3.00
2019-06-26T21:31:17.888Z,2.75
2019-06-26T21:33:46.883Z,3.00
2019-06-26T21:36:15.846Z,2.95
2019-06-26T21:38:44.768Z,2.98
2019-06-26T21:41:13.592Z,2.80
2019-06-26T21:43:42.540Z,3.27
2019-06-26T21:46:11.712Z,3.22
2019-06-26T21:48:40.567Z,2.52
2019-06-26T21:51:09.754Z,3.15
2019-06-26T21:53:38.654Z,3.50
2019-06-26T21:56:08.403Z,2.98
2019-06-26T21:58:37.261Z,2.87
2019-06-26T22:01:06.536Z,3.20
2019-06-26T22:03:35.517Z,3.02
2019-06-26T22:06:04.483Z,3.08
2019-06-26T22:08:33.383Z,2.72
2019-06-26T22:11:02.282Z,2.62
2019-06-26T22:13:31.594Z,2.62
2019-06-26T22:16:01.098Z,3.45
2019-06-26T22:18:30.407Z,3.02
2019-06-26T22:20:59.289Z,2.55
2019-06-26T22:23:28.150Z,2.80
2019-06-26T22:25:56.982Z,2.72
2019-06-26T22:28:25.879Z,2.75
2019-06-26T22:30:54.714Z,3.00
2019-06-26T22:33:23.914Z,3.27
2019-06-26T22:35:52.798Z,2.60
2019-06-26T22:38:21.691Z,2.85
2019-06-26T22:40:50.598Z,2.47
2019-06-26T22:43:19.463Z,2.45
2019-06-26T22:45:48.289Z,2.92
2019-06-26T22:48:17.164Z,2.65
2019-06-26T22:50:46.050Z,2.45
2019-06-26T22:53:14.956Z,2.47
2019-06-26T22:55:43.847Z,2.70
2019-06-26T22:58:12.695Z,2.40
2019-06-26T23:00:41.609Z,2.27
2019-06-26T23:03:10.481Z,2.50
2019-06-26T23:05:39.365Z,2.83
2019-06-26T23:08:08.212Z,3.02
2019-06-26T23:10:37.444Z,3.08
2019-06-26T23:13:09.510Z,3.30
2019-06-26T23:15:36.834Z,2.77
2019-06-26T23:18:05.690Z,2.75
2019-06-26T23:20:34.539Z,2.87
2019-06-26T23:23:03.448Z,2.62
2019-06-26T23:25:32.334Z,3.65
2019-06-26T23:28:01.187Z,3.02
2019-06-26T23:30:30.093Z,2.90
2019-06-26T23:32:58.964Z,2.80
2019-06-26T23:35:30.172Z,3.67
2019-06-26T23:37:59.202Z,3.02
2019-06-26T23:40:28.158Z,2.70
2019-06-26T23:42:57.026Z,2.60
2019-06-26T23:45:25.908Z,3.70
2019-06-26T23:47:54.812Z,2.90
2019-06-26T23:50:23.659Z,3.10
2019-06-26T23:52:52.525Z,2.90
2019-06-26T23:55:21.478Z,2.75
2019-06-26T23:57:58.860Z,2.77
